JM-0004 weather

Ewarton Airstrip
Ewarton, Saint Catherine, Jamaica

Public forecast

Using degrees Celsius for public forecast. Weather courtesy of forecast.io.

METAR (pilot weather report)

Closest report is Norman Manley International Airport, 21.5 nm (39.8 km) SE. Retrieved 2019/05/23 10:00 UTC (40 minutes ago):

MKJP 231000Z 31003KT 9999 FEW022 26/21 Q1012

TAF (pilot weather forecast)

Closest forecast is Norman Manley International Airport, 21.5 nm (39.8 km) SE. Retrieved 2019/05/23 06:25 UTC (4 hours ago):

TAF MKJP 230515Z 2306/2406 VRB02KT 9999 FEW022 BECMG 2314/2316 16010KT PROB40 TEMPO 2317/2401 TSRA BKN018 FEW020CB BECMG 2323/2401 VRB02KT